sensor_id;sensor_type;location;lat;lon;timestamp;temperature;humidity
35299;DHT22;21415;48.054;16.646;2022-11-15T00:01:25;13.10;62.70
35299;DHT22;21415;48.054;16.646;2022-11-15T00:04:09;13.10;62.60
35299;DHT22;21415;48.054;16.646;2022-11-15T00:06:54;13.10;62.60
35299;DHT22;21415;48.054;16.646;2022-11-15T00:09:38;13.10;62.40
35299;DHT22;21415;48.054;16.646;2022-11-15T00:12:22;13.10;62.40
35299;DHT22;21415;48.054;16.646;2022-11-15T00:15:07;13.10;62.40
35299;DHT22;21415;48.054;16.646;2022-11-15T00:17:51;13.10;62.40
35299;DHT22;21415;48.054;16.646;2022-11-15T00:20:36;13.10;62.50
35299;DHT22;21415;48.054;16.646;2022-11-15T00:23:20;13.10;62.40
35299;DHT22;21415;48.054;16.646;2022-11-15T00:26:04;13.10;62.50
35299;DHT22;21415;48.054;16.646;2022-11-15T00:28:50;13.10;62.40
35299;DHT22;21415;48.054;16.646;2022-11-15T00:31:35;13.10;62.50
35299;DHT22;21415;48.054;16.646;2022-11-15T00:34:19;13.10;62.60
35299;DHT22;21415;48.054;16.646;2022-11-15T00:37:04;13.20;62.50
35299;DHT22;21415;48.054;16.646;2022-11-15T00:39:49;13.20;62.50
35299;DHT22;21415;48.054;16.646;2022-11-15T00:42:33;13.20;62.50
35299;DHT22;21415;48.054;16.646;2022-11-15T00:45:17;13.20;62.50
35299;DHT22;21415;48.054;16.646;2022-11-15T00:48:02;13.00;62.30
35299;DHT22;21415;48.054;16.646;2022-11-15T00:50:47;13.20;62.40
35299;DHT22;21415;48.054;16.646;2022-11-15T00:53:31;13.20;62.40
35299;DHT22;21415;48.054;16.646;2022-11-15T00:56:16;13.20;62.40
35299;DHT22;21415;48.054;16.646;2022-11-15T00:59:00;13.20;62.30
35299;DHT22;21415;48.054;16.646;2022-11-15T01:01:44;13.20;62.30
35299;DHT22;21415;48.054;16.646;2022-11-15T01:04:28;13.20;62.30
35299;DHT22;21415;48.054;16.646;2022-11-15T01:07:13;13.30;62.30
35299;DHT22;21415;48.054;16.646;2022-11-15T01:09:57;13.20;62.30
35299;DHT22;21415;48.054;16.646;2022-11-15T01:12:41;13.30;62.40
35299;DHT22;21415;48.054;16.646;2022-11-15T01:15:25;13.30;62.30
35299;DHT22;21415;48.054;16.646;2022-11-15T01:18:10;13.30;62.20
35299;DHT22;21415;48.054;16.646;2022-11-15T01:20:54;13.30;62.20
35299;DHT22;21415;48.054;16.646;2022-11-15T01:23:38;13.30;62.10
35299;DHT22;21415;48.054;16.646;2022-11-15T01:26:23;13.40;62.10
35299;DHT22;21415;48.054;16.646;2022-11-15T01:29:08;13.40;62.10
35299;DHT22;21415;48.054;16.646;2022-11-15T01:31:53;13.40;62.00
35299;DHT22;21415;48.054;16.646;2022-11-15T01:34:38;13.40;61.90
35299;DHT22;21415;48.054;16.646;2022-11-15T01:37:22;13.40;61.80
35299;DHT22;21415;48.054;16.646;2022-11-15T01:40:06;13.30;61.80
35299;DHT22;21415;48.054;16.646;2022-11-15T01:42:50;13.30;61.80
35299;DHT22;21415;48.054;16.646;2022-11-15T01:45:34;13.30;61.90
35299;DHT22;21415;48.054;16.646;2022-11-15T01:48:20;13.30;62.00
35299;DHT22;21415;48.054;16.646;2022-11-15T01:51:09;13.30;62.00
35299;DHT22;21415;48.054;16.646;2022-11-15T01:54:05;13.30;62.00
35299;DHT22;21415;48.054;16.646;2022-11-15T01:56:55;13.30;62.00
35299;DHT22;21415;48.054;16.646;2022-11-15T01:59:44;13.30;62.30
35299;DHT22;21415;48.054;16.646;2022-11-15T02:02:29;13.30;61.90
35299;DHT22;21415;48.054;16.646;2022-11-15T02:05:14;13.30;61.90
35299;DHT22;21415;48.054;16.646;2022-11-15T02:08:00;13.20;61.90
35299;DHT22;21415;48.054;16.646;2022-11-15T02:10:44;13.20;61.90
35299;DHT22;21415;48.054;16.646;2022-11-15T02:13:28;13.20;62.00
35299;DHT22;21415;48.054;16.646;2022-11-15T02:19:22;13.20;62.00
35299;DHT22;21415;48.054;16.646;2022-11-15T02:22:37;13.20;62.20
35299;DHT22;21415;48.054;16.646;2022-11-15T02:25:53;13.20;62.20
35299;DHT22;21415;48.054;16.646;2022-11-15T02:28:45;13.20;62.40
35299;DHT22;21415;48.054;16.646;2022-11-15T02:31:49;13.20;62.20
35299;DHT22;21415;48.054;16.646;2022-11-15T02:41:09;13.10;62.50
35299;DHT22;21415;48.054;16.646;2022-11-15T02:44:04;13.10;62.60
35299;DHT22;21415;48.054;16.646;2022-11-15T02:46:51;13.10;62.50
35299;DHT22;21415;48.054;16.646;2022-11-15T02:49:59;13.10;62.40
35299;DHT22;21415;48.054;16.646;2022-11-15T02:52:45;13.10;62.40
35299;DHT22;21415;48.054;16.646;2022-11-15T02:55:36;13.10;62.40
35299;DHT22;21415;48.054;16.646;2022-11-15T03:08:26;13.10;62.70
35299;DHT22;21415;48.054;16.646;2022-11-15T03:11:14;13.10;62.50
35299;DHT22;21415;48.054;16.646;2022-11-15T03:14:03;13.20;62.50
35299;DHT22;21415;48.054;16.646;2022-11-15T03:20:04;13.20;62.80
35299;DHT22;21415;48.054;16.646;2022-11-15T03:22:50;13.20;62.60
35299;DHT22;21415;48.054;16.646;2022-11-15T03:25:40;13.20;62.50
35299;DHT22;21415;48.054;16.646;2022-11-15T03:28:35;13.20;62.50
35299;DHT22;21415;48.054;16.646;2022-11-15T03:31:22;13.20;62.60
35299;DHT22;21415;48.054;16.646;2022-11-15T03:37:23;13.30;62.60
35299;DHT22;21415;48.054;16.646;2022-11-15T03:40:08;13.30;63.10
35299;DHT22;21415;48.054;16.646;2022-11-15T03:45:55;13.30;62.60
35299;DHT22;21415;48.054;16.646;2022-11-15T03:48:49;13.30;62.50
35299;DHT22;21415;48.054;16.646;2022-11-15T03:51:35;13.40;62.60
35299;DHT22;21415;48.054;16.646;2022-11-15T03:54:19;13.40;62.50
35299;DHT22;21415;48.054;16.646;2022-11-15T03:57:04;13.40;62.70
35299;DHT22;21415;48.054;16.646;2022-11-15T03:59:48;13.40;62.30
35299;DHT22;21415;48.054;16.646;2022-11-15T04:02:32;13.40;62.20
35299;DHT22;21415;48.054;16.646;2022-11-15T04:05:16;13.40;62.20
35299;DHT22;21415;48.054;16.646;2022-11-15T04:08:00;13.50;62.30
35299;DHT22;21415;48.054;16.646;2022-11-15T04:10:45;13.50;62.20
35299;DHT22;21415;48.054;16.646;2022-11-15T04:13:29;13.50;62.30
35299;DHT22;21415;48.054;16.646;2022-11-15T04:16:13;13.40;62.20
35299;DHT22;21415;48.054;16.646;2022-11-15T04:18:57;13.50;62.30
35299;DHT22;21415;48.054;16.646;2022-11-15T04:22:00;13.40;62.20
35299;DHT22;21415;48.054;16.646;2022-11-15T04:25:03;13.40;62.20
35299;DHT22;21415;48.054;16.646;2022-11-15T04:27:47;13.40;62.20
35299;DHT22;21415;48.054;16.646;2022-11-15T04:30:31;13.40;62.30
35299;DHT22;21415;48.054;16.646;2022-11-15T04:33:15;13.40;62.30
35299;DHT22;21415;48.054;16.646;2022-11-15T04:36:00;13.40;62.30
35299;DHT22;21415;48.054;16.646;2022-11-15T04:39:03;13.50;62.40
35299;DHT22;21415;48.054;16.646;2022-11-15T04:41:47;13.40;62.20
35299;DHT22;21415;48.054;16.646;2022-11-15T04:44:32;13.50;62.20
35299;DHT22;21415;48.054;16.646;2022-11-15T04:47:16;13.50;62.20
35299;DHT22;21415;48.054;16.646;2022-11-15T04:50:01;13.50;62.20
35299;DHT22;21415;48.054;16.646;2022-11-15T04:52:53;13.50;62.10
35299;DHT22;21415;48.054;16.646;2022-11-15T04:55:37;13.50;62.30
35299;DHT22;21415;48.054;16.646;2022-11-15T04:58:22;13.50;62.20
35299;DHT22;21415;48.054;16.646;2022-11-15T05:01:13;13.50;62.20
35299;DHT22;21415;48.054;16.646;2022-11-15T05:03:58;13.50;62.30
35299;DHT22;21415;48.054;16.646;2022-11-15T05:07:01;13.50;62.20
35299;DHT22;21415;48.054;16.646;2022-11-15T05:09:46;13.50;62.10
35299;DHT22;21415;48.054;16.646;2022-11-15T05:12:30;13.50;62.10
35299;DHT22;21415;48.054;16.646;2022-11-15T05:15:14;13.50;62.10
35299;DHT22;21415;48.054;16.646;2022-11-15T05:17:59;13.50;62.10
35299;DHT22;21415;48.054;16.646;2022-11-15T05:20:44;13.50;62.00
35299;DHT22;21415;48.054;16.646;2022-11-15T05:23:28;13.50;62.00
35299;DHT22;21415;48.054;16.646;2022-11-15T05:26:13;13.50;62.00
35299;DHT22;21415;48.054;16.646;2022-11-15T05:28:59;13.60;62.10
35299;DHT22;21415;48.054;16.646;2022-11-15T05:31:43;13.50;62.00
35299;DHT22;21415;48.054;16.646;2022-11-15T05:34:27;13.60;62.10
35299;DHT22;21415;48.054;16.646;2022-11-15T05:37:13;13.60;62.00
35299;DHT22;21415;48.054;16.646;2022-11-15T05:39:57;13.50;62.00
35299;DHT22;21415;48.054;16.646;2022-11-15T05:42:41;13.50;62.00
35299;DHT22;21415;48.054;16.646;2022-11-15T05:45:26;13.50;61.90
35299;DHT22;21415;48.054;16.646;2022-11-15T05:48:11;13.50;61.90
35299;DHT22;21415;48.054;16.646;2022-11-15T05:50:56;13.50;61.90
35299;DHT22;21415;48.054;16.646;2022-11-15T05:53:41;13.50;61.90
35299;DHT22;21415;48.054;16.646;2022-11-15T05:56:25;13.50;61.90
35299;DHT22;21415;48.054;16.646;2022-11-15T05:59:10;13.50;61.90
35299;DHT22;21415;48.054;16.646;2022-11-15T06:01:55;13.50;62.00
35299;DHT22;21415;48.054;16.646;2022-11-15T06:04:39;13.50;62.00
35299;DHT22;21415;48.054;16.646;2022-11-15T06:07:24;13.50;62.00
35299;DHT22;21415;48.054;16.646;2022-11-15T06:10:08;13.50;62.00
35299;DHT22;21415;48.054;16.646;2022-11-15T06:13:00;13.50;62.00
35299;DHT22;21415;48.054;16.646;2022-11-15T06:15:44;13.60;62.00
35299;DHT22;21415;48.054;16.646;2022-11-15T06:18:32;13.60;61.90
35299;DHT22;21415;48.054;16.646;2022-11-15T06:21:16;13.60;61.80
35299;DHT22;21415;48.054;16.646;2022-11-15T06:24:01;13.60;61.80
35299;DHT22;21415;48.054;16.646;2022-11-15T06:26:45;13.60;61.70
35299;DHT22;21415;48.054;16.646;2022-11-15T06:29:31;13.60;61.60
35299;DHT22;21415;48.054;16.646;2022-11-15T06:32:16;13.60;61.60
35299;DHT22;21415;48.054;16.646;2022-11-15T06:35:01;13.60;61.50
35299;DHT22;21415;48.054;16.646;2022-11-15T06:37:45;13.60;61.50
35299;DHT22;21415;48.054;16.646;2022-11-15T06:40:29;13.60;61.40
35299;DHT22;21415;48.054;16.646;2022-11-15T06:43:13;13.60;61.50
35299;DHT22;21415;48.054;16.646;2022-11-15T06:46:00;13.60;61.50
35299;DHT22;21415;48.054;16.646;2022-11-15T06:48:44;13.60;61.60
35299;DHT22;21415;48.054;16.646;2022-11-15T06:51:29;13.60;61.60
35299;DHT22;21415;48.054;16.646;2022-11-15T06:54:13;13.60;61.40
35299;DHT22;21415;48.054;16.646;2022-11-15T06:56:57;13.60;61.40
35299;DHT22;21415;48.054;16.646;2022-11-15T06:59:42;13.60;61.40
35299;DHT22;21415;48.054;16.646;2022-11-15T07:02:26;13.60;61.40
35299;DHT22;21415;48.054;16.646;2022-11-15T07:05:12;13.60;62.00
35299;DHT22;21415;48.054;16.646;2022-11-15T07:07:57;13.60;61.60
35299;DHT22;21415;48.054;16.646;2022-11-15T07:10:42;13.60;61.60
35299;DHT22;21415;48.054;16.646;2022-11-15T07:13:27;13.60;61.50
35299;DHT22;21415;48.054;16.646;2022-11-15T07:16:11;13.60;61.60
35299;DHT22;21415;48.054;16.646;2022-11-15T07:18:56;13.60;61.60
35299;DHT22;21415;48.054;16.646;2022-11-15T07:21:41;13.60;61.60
35299;DHT22;21415;48.054;16.646;2022-11-15T07:24:25;13.60;61.80
35299;DHT22;21415;48.054;16.646;2022-11-15T07:27:09;13.60;61.80
35299;DHT22;21415;48.054;16.646;2022-11-15T07:29:54;13.50;61.80
35299;DHT22;21415;48.054;16.646;2022-11-15T07:32:38;13.50;61.90
35299;DHT22;21415;48.054;16.646;2022-11-15T07:35:23;13.50;61.90
35299;DHT22;21415;48.054;16.646;2022-11-15T07:38:08;13.50;62.00
35299;DHT22;21415;48.054;16.646;2022-11-15T07:41:03;13.50;62.00
35299;DHT22;21415;48.054;16.646;2022-11-15T07:43:51;13.50;62.00
35299;DHT22;21415;48.054;16.646;2022-11-15T07:46:36;13.50;62.00
35299;DHT22;21415;48.054;16.646;2022-11-15T07:49:21;13.60;61.90
35299;DHT22;21415;48.054;16.646;2022-11-15T07:52:06;13.60;61.90
35299;DHT22;21415;48.054;16.646;2022-11-15T07:54:52;13.60;61.90
35299;DHT22;21415;48.054;16.646;2022-11-15T07:57:37;13.60;61.80
35299;DHT22;21415;48.054;16.646;2022-11-15T08:00:21;13.60;61.80
35299;DHT22;21415;48.054;16.646;2022-11-15T08:03:13;13.60;61.70
35299;DHT22;21415;48.054;16.646;2022-11-15T08:05:57;13.60;61.70
35299;DHT22;21415;48.054;16.646;2022-11-15T08:08:42;13.60;61.80
35299;DHT22;21415;48.054;16.646;2022-11-15T08:11:26;13.60;61.80
35299;DHT22;21415;48.054;16.646;2022-11-15T08:14:10;13.60;61.90
35299;DHT22;21415;48.054;16.646;2022-11-15T08:16:55;13.60;61.90
35299;DHT22;21415;48.054;16.646;2022-11-15T08:19:39;13.50;61.80
35299;DHT22;21415;48.054;16.646;2022-11-15T08:22:24;13.60;61.90
35299;DHT22;21415;48.054;16.646;2022-11-15T08:25:08;13.60;61.90
35299;DHT22;21415;48.054;16.646;2022-11-15T08:27:57;13.60;61.90
35299;DHT22;21415;48.054;16.646;2022-11-15T08:30:43;13.60;62.10
35299;DHT22;21415;48.054;16.646;2022-11-15T08:33:30;13.60;62.00
35299;DHT22;21415;48.054;16.646;2022-11-15T08:36:16;13.60;62.00
35299;DHT22;21415;48.054;16.646;2022-11-15T08:39:01;13.60;62.50
35299;DHT22;21415;48.054;16.646;2022-11-15T08:41:46;13.50;61.80
35299;DHT22;21415;48.054;16.646;2022-11-15T08:44:30;13.60;61.80
35299;DHT22;21415;48.054;16.646;2022-11-15T08:47:14;13.60;61.80
35299;DHT22;21415;48.054;16.646;2022-11-15T08:49:58;13.60;61.90
35299;DHT22;21415;48.054;16.646;2022-11-15T08:52:43;13.60;61.90
35299;DHT22;21415;48.054;16.646;2022-11-15T08:55:27;13.60;61.90
35299;DHT22;21415;48.054;16.646;2022-11-15T08:58:11;13.60;62.00
35299;DHT22;21415;48.054;16.646;2022-11-15T09:00:56;13.60;62.00
35299;DHT22;21415;48.054;16.646;2022-11-15T09:03:40;13.60;62.00
35299;DHT22;21415;48.054;16.646;2022-11-15T09:06:24;13.60;62.00
35299;DHT22;21415;48.054;16.646;2022-11-15T09:09:09;13.70;62.10
35299;DHT22;21415;48.054;16.646;2022-11-15T09:11:53;13.70;62.20
35299;DHT22;21415;48.054;16.646;2022-11-15T09:14:37;13.60;62.10
35299;DHT22;21415;48.054;16.646;2022-11-15T09:17:21;13.70;62.20
35299;DHT22;21415;48.054;16.646;2022-11-15T09:20:06;13.70;62.10
35299;DHT22;21415;48.054;16.646;2022-11-15T09:22:51;13.70;62.10
35299;DHT22;21415;48.054;16.646;2022-11-15T09:25:35;13.80;62.10
35299;DHT22;21415;48.054;16.646;2022-11-15T09:28:19;13.70;62.00
35299;DHT22;21415;48.054;16.646;2022-11-15T09:31:05;13.80;62.10
35299;DHT22;21415;48.054;16.646;2022-11-15T09:33:49;13.80;62.20
35299;DHT22;21415;48.054;16.646;2022-11-15T09:36:34;13.80;62.30
35299;DHT22;21415;48.054;16.646;2022-11-15T09:39:19;13.80;62.30
35299;DHT22;21415;48.054;16.646;2022-11-15T09:45:28;13.90;62.40
35299;DHT22;21415;48.054;16.646;2022-11-15T09:51:12;14.00;62.40
35299;DHT22;21415;48.054;16.646;2022-11-15T09:53:49;14.00;62.40
35299;DHT22;21415;48.054;16.646;2022-11-15T09:56:21;14.10;62.30
35299;DHT22;21415;48.054;16.646;2022-11-15T10:03:59;14.20;62.40
35299;DHT22;21415;48.054;16.646;2022-11-15T10:06:26;14.30;62.30
35299;DHT22;21415;48.054;16.646;2022-11-15T10:09:04;14.30;62.30
35299;DHT22;21415;48.054;16.646;2022-11-15T10:11:35;14.30;62.20
35299;DHT22;21415;48.054;16.646;2022-11-15T10:14:14;14.40;62.10
35299;DHT22;21415;48.054;16.646;2022-11-15T10:23:05;14.50;61.90
35299;DHT22;21415;48.054;16.646;2022-11-15T10:25:28;14.50;61.70
35299;DHT22;21415;48.054;16.646;2022-11-15T10:30:43;14.60;61.70
35299;DHT22;21415;48.054;16.646;2022-11-15T10:36:16;14.70;61.80
35299;DHT22;21415;48.054;16.646;2022-11-15T10:41:18;14.70;61.50
35299;DHT22;21415;48.054;16.646;2022-11-15T10:43:45;14.80;61.60
35299;DHT22;21415;48.054;16.646;2022-11-15T10:46:22;14.80;61.50
35299;DHT22;21415;48.054;16.646;2022-11-15T10:48:49;14.80;61.40
35299;DHT22;21415;48.054;16.646;2022-11-15T10:51:24;14.70;61.30
35299;DHT22;21415;48.054;16.646;2022-11-15T10:53:56;14.90;61.30
35299;DHT22;21415;48.054;16.646;2022-11-15T10:56:25;14.90;61.30
35299;DHT22;21415;48.054;16.646;2022-11-15T10:58:56;14.90;61.30
35299;DHT22;21415;48.054;16.646;2022-11-15T11:01:24;14.90;61.30
35299;DHT22;21415;48.054;16.646;2022-11-15T11:04:08;14.90;61.30
35299;DHT22;21415;48.054;16.646;2022-11-15T11:06:50;14.90;61.20
35299;DHT22;21415;48.054;16.646;2022-11-15T11:11:52;14.90;61.30
35299;DHT22;21415;48.054;16.646;2022-11-15T11:14:29;14.90;61.50
35299;DHT22;21415;48.054;16.646;2022-11-15T11:19:46;15.00;61.30
35299;DHT22;21415;48.054;16.646;2022-11-15T11:22:29;15.00;61.40
35299;DHT22;21415;48.054;16.646;2022-11-15T11:33:37;15.10;60.90
35299;DHT22;21415;48.054;16.646;2022-11-15T11:38:58;15.10;61.20
35299;DHT22;21415;48.054;16.646;2022-11-15T11:46:59;15.20;61.00
35299;DHT22;21415;48.054;16.646;2022-11-15T11:58:52;15.30;60.50
35299;DHT22;21415;48.054;16.646;2022-11-15T12:01:20;15.40;60.50
35299;DHT22;21415;48.054;16.646;2022-11-15T12:03:53;15.40;60.40
35299;DHT22;21415;48.054;16.646;2022-11-15T12:06:42;15.40;60.60
35299;DHT22;21415;48.054;16.646;2022-11-15T12:17:30;15.40;60.10
35299;DHT22;21415;48.054;16.646;2022-11-15T12:20:00;15.50;60.30
35299;DHT22;21415;48.054;16.646;2022-11-15T12:22:41;15.50;60.20
35299;DHT22;21415;48.054;16.646;2022-11-15T12:25:31;15.50;60.00
35299;DHT22;21415;48.054;16.646;2022-11-15T12:30:49;15.50;59.70
35299;DHT22;21415;48.054;16.646;2022-11-15T12:33:36;15.50;60.10
35299;DHT22;21415;48.054;16.646;2022-11-15T12:36:09;15.50;59.90
35299;DHT22;21415;48.054;16.646;2022-11-15T12:38:57;15.50;60.00
35299;DHT22;21415;48.054;16.646;2022-11-15T12:41:29;15.50;59.90
35299;DHT22;21415;48.054;16.646;2022-11-15T12:43:56;15.50;60.00
35299;DHT22;21415;48.054;16.646;2022-11-15T12:48:57;15.50;60.10
35299;DHT22;21415;48.054;16.646;2022-11-15T13:17:55;15.80;60.10
35299;DHT22;21415;48.054;16.646;2022-11-15T13:20:29;15.70;60.20
35299;DHT22;21415;48.054;16.646;2022-11-15T13:23:12;15.80;60.10
35299;DHT22;21415;48.054;16.646;2022-11-15T13:26:09;15.70;59.80
35299;DHT22;21415;48.054;16.646;2022-11-15T13:28:42;15.80;59.90
35299;DHT22;21415;48.054;16.646;2022-11-15T13:31:36;15.80;60.10
35299;DHT22;21415;48.054;16.646;2022-11-15T13:34:29;15.80;59.80
35299;DHT22;21415;48.054;16.646;2022-11-15T13:36:58;15.80;59.80
35299;DHT22;21415;48.054;16.646;2022-11-15T13:39:25;15.80;59.80
35299;DHT22;21415;48.054;16.646;2022-11-15T13:41:52;15.80;59.80
35299;DHT22;21415;48.054;16.646;2022-11-15T13:44:30;15.80;59.80
35299;DHT22;21415;48.054;16.646;2022-11-15T13:47:05;15.80;59.80
35299;DHT22;21415;48.054;16.646;2022-11-15T13:49:34;15.70;59.70
35299;DHT22;21415;48.054;16.646;2022-11-15T13:52:05;15.70;59.80
35299;DHT22;21415;48.054;16.646;2022-11-15T13:54:45;15.70;59.80
35299;DHT22;21415;48.054;16.646;2022-11-15T13:57:28;15.70;59.80
35299;DHT22;21415;48.054;16.646;2022-11-15T14:00:01;15.70;59.80
35299;DHT22;21415;48.054;16.646;2022-11-15T14:02:37;15.70;59.90
35299;DHT22;21415;48.054;16.646;2022-11-15T14:07:38;15.70;59.80
35299;DHT22;21415;48.054;16.646;2022-11-15T14:10:37;15.60;59.90
35299;DHT22;21415;48.054;16.646;2022-11-15T14:13:10;15.70;60.00
35299;DHT22;21415;48.054;16.646;2022-11-15T14:15:38;15.70;60.10
35299;DHT22;21415;48.054;16.646;2022-11-15T14:18:05;15.70;60.00
35299;DHT22;21415;48.054;16.646;2022-11-15T14:20:35;15.70;60.00
35299;DHT22;21415;48.054;16.646;2022-11-15T14:23:03;15.70;60.10
35299;DHT22;21415;48.054;16.646;2022-11-15T14:25:31;15.70;60.10
35299;DHT22;21415;48.054;16.646;2022-11-15T14:28:28;15.70;60.10
35299;DHT22;21415;48.054;16.646;2022-11-15T14:30:57;15.70;60.00
35299;DHT22;21415;48.054;16.646;2022-11-15T14:35:58;15.70;60.20
35299;DHT22;21415;48.054;16.646;2022-11-15T14:38:27;15.70;60.20
35299;DHT22;21415;48.054;16.646;2022-11-15T14:40:54;15.70;60.10
35299;DHT22;21415;48.054;16.646;2022-11-15T14:43:21;15.70;60.20
35299;DHT22;21415;48.054;16.646;2022-11-15T14:45:47;15.70;60.10
35299;DHT22;21415;48.054;16.646;2022-11-15T14:48:13;15.70;60.20
35299;DHT22;21415;48.054;16.646;2022-11-15T14:50:39;15.70;60.00
35299;DHT22;21415;48.054;16.646;2022-11-15T14:53:12;15.70;60.00
35299;DHT22;21415;48.054;16.646;2022-11-15T14:55:39;15.70;60.00
35299;DHT22;21415;48.054;16.646;2022-11-15T14:58:06;15.70;60.00
35299;DHT22;21415;48.054;16.646;2022-11-15T15:00:37;15.70;60.10
35299;DHT22;21415;48.054;16.646;2022-11-15T15:03:04;15.60;60.00
35299;DHT22;21415;48.054;16.646;2022-11-15T15:05:41;15.60;60.00
35299;DHT22;21415;48.054;16.646;2022-11-15T15:08:08;15.60;59.80
35299;DHT22;21415;48.054;16.646;2022-11-15T15:10:41;15.50;59.90
35299;DHT22;21415;48.054;16.646;2022-11-15T15:13:19;15.60;59.90
35299;DHT22;21415;48.054;16.646;2022-11-15T15:15:46;15.50;59.90
35299;DHT22;21415;48.054;16.646;2022-11-15T15:18:12;15.50;60.00
35299;DHT22;21415;48.054;16.646;2022-11-15T15:20:38;15.50;60.00
35299;DHT22;21415;48.054;16.646;2022-11-15T15:23:05;15.50;60.00
35299;DHT22;21415;48.054;16.646;2022-11-15T15:25:34;15.50;59.70
35299;DHT22;21415;48.054;16.646;2022-11-15T15:28:03;15.50;59.70
35299;DHT22;21415;48.054;16.646;2022-11-15T15:30:32;15.40;59.90
35299;DHT22;21415;48.054;16.646;2022-11-15T15:32:58;15.30;59.80
35299;DHT22;21415;48.054;16.646;2022-11-15T15:35:25;15.40;60.00
35299;DHT22;21415;48.054;16.646;2022-11-15T15:37:54;15.40;60.00
35299;DHT22;21415;48.054;16.646;2022-11-15T15:40:22;15.40;60.00
35299;DHT22;21415;48.054;16.646;2022-11-15T15:42:49;15.40;60.10
35299;DHT22;21415;48.054;16.646;2022-11-15T15:45:15;15.30;60.00
35299;DHT22;21415;48.054;16.646;2022-11-15T15:47:42;15.30;60.00
35299;DHT22;21415;48.054;16.646;2022-11-15T15:52:50;15.40;59.90
35299;DHT22;21415;48.054;16.646;2022-11-15T15:55:16;15.40;59.90
35299;DHT22;21415;48.054;16.646;2022-11-15T15:57:42;15.40;60.00
35299;DHT22;21415;48.054;16.646;2022-11-15T16:00:09;15.40;60.00
35299;DHT22;21415;48.054;16.646;2022-11-15T16:02:39;15.30;59.90
35299;DHT22;21415;48.054;16.646;2022-11-15T16:05:06;15.40;60.50
35299;DHT22;21415;48.054;16.646;2022-11-15T16:07:32;15.40;60.00
35299;DHT22;21415;48.054;16.646;2022-11-15T16:09:58;15.40;60.00
35299;DHT22;21415;48.054;16.646;2022-11-15T16:12:35;15.40;60.00
35299;DHT22;21415;48.054;16.646;2022-11-15T16:15:02;15.40;59.90
35299;DHT22;21415;48.054;16.646;2022-11-15T16:17:31;15.40;59.90
35299;DHT22;21415;48.054;16.646;2022-11-15T16:19:58;15.40;59.90
35299;DHT22;21415;48.054;16.646;2022-11-15T16:22:23;15.40;60.00
35299;DHT22;21415;48.054;16.646;2022-11-15T16:24:49;15.40;59.90
35299;DHT22;21415;48.054;16.646;2022-11-15T16:27:17;15.40;59.90
35299;DHT22;21415;48.054;16.646;2022-11-15T16:29:44;15.40;60.00
35299;DHT22;21415;48.054;16.646;2022-11-15T16:32:10;15.40;59.90
35299;DHT22;21415;48.054;16.646;2022-11-15T16:34:37;15.40;60.00
35299;DHT22;21415;48.054;16.646;2022-11-15T16:37:03;15.30;60.00
35299;DHT22;21415;48.054;16.646;2022-11-15T16:39:29;15.40;60.10
35299;DHT22;21415;48.054;16.646;2022-11-15T16:41:56;15.40;60.00
35299;DHT22;21415;48.054;16.646;2022-11-15T16:44:22;15.40;60.10
35299;DHT22;21415;48.054;16.646;2022-11-15T16:46:49;15.50;59.90
35299;DHT22;21415;48.054;16.646;2022-11-15T16:49:18;15.50;59.90
35299;DHT22;21415;48.054;16.646;2022-11-15T16:51:48;15.50;60.00
35299;DHT22;21415;48.054;16.646;2022-11-15T16:54:15;15.40;59.90
35299;DHT22;21415;48.054;16.646;2022-11-15T16:56:41;15.40;60.00
35299;DHT22;21415;48.054;16.646;2022-11-15T16:59:10;15.40;60.00
35299;DHT22;21415;48.054;16.646;2022-11-15T17:01:39;15.40;60.00
35299;DHT22;21415;48.054;16.646;2022-11-15T17:04:12;15.40;60.00
35299;DHT22;21415;48.054;16.646;2022-11-15T17:06:39;15.40;60.10
35299;DHT22;21415;48.054;16.646;2022-11-15T17:09:11;15.40;60.10
35299;DHT22;21415;48.054;16.646;2022-11-15T17:11:41;15.40;60.20
35299;DHT22;21415;48.054;16.646;2022-11-15T17:14:07;15.30;60.20
35299;DHT22;21415;48.054;16.646;2022-11-15T17:16:33;15.40;60.20
35299;DHT22;21415;48.054;16.646;2022-11-15T17:19:00;15.40;60.20
35299;DHT22;21415;48.054;16.646;2022-11-15T17:21:26;15.30;60.20
35299;DHT22;21415;48.054;16.646;2022-11-15T17:23:53;15.40;60.30
35299;DHT22;21415;48.054;16.646;2022-11-15T17:26:19;15.30;60.30
35299;DHT22;21415;48.054;16.646;2022-11-15T17:28:45;15.30;60.30
35299;DHT22;21415;48.054;16.646;2022-11-15T17:31:13;15.30;60.30
35299;DHT22;21415;48.054;16.646;2022-11-15T17:33:41;15.40;60.40
35299;DHT22;21415;48.054;16.646;2022-11-15T17:36:10;15.40;60.30
35299;DHT22;21415;48.054;16.646;2022-11-15T17:38:36;15.40;60.30
35299;DHT22;21415;48.054;16.646;2022-11-15T17:41:08;15.40;60.20
35299;DHT22;21415;48.054;16.646;2022-11-15T17:43:36;15.40;60.30
35299;DHT22;21415;48.054;16.646;2022-11-15T17:46:05;15.40;60.20
35299;DHT22;21415;48.054;16.646;2022-11-15T17:48:31;15.60;60.30
35299;DHT22;21415;48.054;16.646;2022-11-15T17:51:02;15.50;60.10
35299;DHT22;21415;48.054;16.646;2022-11-15T17:53:33;15.50;60.20
35299;DHT22;21415;48.054;16.646;2022-11-15T17:56:07;15.50;60.10
35299;DHT22;21415;48.054;16.646;2022-11-15T17:58:33;15.50;60.10
35299;DHT22;21415;48.054;16.646;2022-11-15T18:03:35;15.50;60.10
35299;DHT22;21415;48.054;16.646;2022-11-15T18:06:05;15.50;59.70
35299;DHT22;21415;48.054;16.646;2022-11-15T18:08:34;15.50;59.70
35299;DHT22;21415;48.054;16.646;2022-11-15T18:11:09;15.50;59.70
35299;DHT22;21415;48.054;16.646;2022-11-15T18:13:36;15.50;59.70
35299;DHT22;21415;48.054;16.646;2022-11-15T18:16:09;15.50;59.70
35299;DHT22;21415;48.054;16.646;2022-11-15T18:18:35;15.50;59.70
35299;DHT22;21415;48.054;16.646;2022-11-15T18:21:03;15.50;59.70
35299;DHT22;21415;48.054;16.646;2022-11-15T18:23:30;15.50;59.60
35299;DHT22;21415;48.054;16.646;2022-11-15T18:25:56;15.50;59.70
35299;DHT22;21415;48.054;16.646;2022-11-15T18:28:21;15.50;59.70
35299;DHT22;21415;48.054;16.646;2022-11-15T18:30:47;15.50;59.70
35299;DHT22;21415;48.054;16.646;2022-11-15T18:33:13;15.50;59.60
35299;DHT22;21415;48.054;16.646;2022-11-15T18:35:39;15.50;59.50
35299;DHT22;21415;48.054;16.646;2022-11-15T18:38:05;15.50;59.60
35299;DHT22;21415;48.054;16.646;2022-11-15T18:40:30;15.40;59.60
35299;DHT22;21415;48.054;16.646;2022-11-15T18:42:56;15.50;59.70
35299;DHT22;21415;48.054;16.646;2022-11-15T18:45:22;15.50;59.60